Time;durP1;ratioP1;P1;durP2;ratioP2;P2;SDS_P1;SDS_P2;PMS_P1;PMS_P2;Temp;Humidity;BMP_temperature;BMP_pressure;BME280_temperature;BME280_humidity;BME280_pressure;Samples;Min_cycle;Max_cycle;Signal;HPM_P1;HPM_P2
2023/04/27 00:00:20;;;;;;;3.15;2.38;;;;;;;10.95;100.00;99861.19;5030610;28;20029;-70
2023/04/27 00:02:46;;;;;;;5.07;2.00;;;;;;;10.86;100.00;99869.56;5030417;28;20037;-71
2023/04/27 00:05:12;;;;;;;1.83;1.70;;;;;;;10.79;100.00;99867.66;5027910;28;20044;-71
2023/04/27 00:07:37;;;;;;;2.55;1.80;;;;;;;10.54;100.00;99846.34;5030753;28;20541;-72
2023/04/27 00:10:03;;;;;;;2.88;1.80;;;;;;;10.62;100.00;99857.78;5030423;28;20394;-71
2023/04/27 00:12:29;;;;;;;4.75;1.50;;;;;;;10.45;100.00;99875.38;5030543;28;20038;-71
2023/04/27 00:14:54;;;;;;;2.55;1.50;;;;;;;10.35;100.00;99878.50;5030424;28;20139;-69
2023/04/27 00:17:20;;;;;;;2.28;1.50;;;;;;;10.27;100.00;99883.44;5032980;28;20041;-72
2023/04/27 00:19:46;;;;;;;2.03;1.40;;;;;;;10.28;100.00;99884.31;5034513;28;20112;-73
2023/04/27 00:22:12;;;;;;;1.98;1.42;;;;;;;10.25;100.00;99884.25;5034150;28;20414;-72
2023/04/27 00:24:38;;;;;;;2.00;1.38;;;;;;;10.33;100.00;99893.06;5034245;28;20538;-72
2023/04/27 00:27:03;;;;;;;2.63;1.40;;;;;;;9.84;100.00;99816.03;5034144;28;20132;-68
2023/04/27 00:29:29;;;;;;;1.75;1.20;;;;;;;10.24;100.00;99890.22;5034240;28;20151;-70
2023/04/27 00:31:55;;;;;;;1.55;1.23;;;;;;;10.12;100.00;99881.28;5033940;28;20039;-73
2023/04/27 00:34:20;;;;;;;1.70;1.20;;;;;;;10.20;100.00;99902.16;5034212;28;20103;-70
2023/04/27 00:36:45;;;;;;;1.30;1.20;;;;;;;10.01;100.00;99891.28;5032697;28;20029;-71
2023/04/27 00:39:11;;;;;;;2.08;1.33;;;;;;;9.96;100.00;99907.47;5033691;28;20033;-74
2023/04/27 00:41:40;;;;;;;3.67;1.20;;;;;;;10.03;100.00;99904.22;5033982;28;20025;-71
2023/04/27 00:44:05;;;;;;;2.75;1.85;;;;;;;9.93;100.00;99894.47;5033533;28;20041;-73
2023/04/27 00:46:32;;;;;;;1.35;1.20;;;;;;;9.98;100.00;99919.56;5033757;28;20029;-72
2023/04/27 00:48:59;;;;;;;1.20;1.10;;;;;;;9.61;100.00;99882.34;5033542;28;20123;-70
2023/04/27 00:51:26;;;;;;;1.20;1.10;;;;;;;9.80;100.00;99927.59;5033987;28;20024;-70
2023/04/27 00:53:52;;;;;;;1.15;1.10;;;;;;;9.86;100.00;99930.38;5033027;28;20667;-71
2023/04/27 00:56:19;;;;;;;3.08;1.30;;;;;;;9.65;100.00;99929.72;5033542;28;20386;-73
2023/04/27 00:58:44;;;;;;;1.13;1.02;;;;;;;9.53;100.00;99936.22;5033654;28;20036;-70
2023/04/27 01:01:10;;;;;;;1.42;1.10;;;;;;;8.84;100.00;99821.50;5033791;28;20029;-74
2023/04/27 01:03:36;;;;;;;1.20;1.10;;;;;;;9.48;100.00;99948.09;5033127;28;20557;-70
2023/04/27 01:06:01;;;;;;;2.13;1.20;;;;;;;9.50;100.00;99958.44;5033757;28;20037;-70
2023/04/27 01:08:30;;;;;;;3.80;1.15;;;;;;;9.36;100.00;99965.72;5032965;28;20075;-71
2023/04/27 01:10:55;;;;;;;1.90;1.20;;;;;;;9.41;100.00;99971.88;5033571;28;20029;-70
2023/04/27 01:13:21;;;;;;;2.88;1.23;;;;;;;9.23;100.00;99964.41;5033507;28;20036;-68
2023/04/27 01:15:47;;;;;;;1.35;1.08;;;;;;;9.24;100.00;99976.47;5033450;28;20076;-72
2023/04/27 01:18:12;;;;;;;1.10;1.00;;;;;;;8.98;100.00;99944.66;5033185;28;20480;-68
2023/04/27 01:20:38;;;;;;;4.90;1.10;;;;;;;9.07;100.00;99974.19;5033511;28;20026;-70
2023/04/27 01:23:04;;;;;;;1.23;1.10;;;;;;;8.81;100.00;99944.94;5033152;28;20018;-70
2023/04/27 01:25:30;;;;;;;1.67;1.20;;;;;;;8.98;100.00;99988.44;5032895;28;20075;-70
2023/04/27 01:27:55;;;;;;;3.42;1.52;;;;;;;8.80;100.00;99966.34;5032234;28;20021;-71
2023/04/27 01:30:21;;;;;;;3.50;1.40;;;;;;;9.00;100.00;100003.09;5032741;28;20025;-71
2023/04/27 01:32:47;;;;;;;5.97;2.53;;;;;;;9.05;100.00;100016.16;5032899;28;20053;-68
2023/04/27 01:35:14;;;;;;;2.15;1.38;;;;;;;8.94;100.00;100020.03;5033057;28;20053;-71
2023/04/27 01:37:41;;;;;;;1.67;1.10;;;;;;;8.63;100.00;99975.16;5032712;28;20045;-69
2023/04/27 01:40:07;;;;;;;2.90;1.20;;;;;;;8.58;100.00;99972.41;5032947;28;20061;-71
2023/04/27 01:42:33;;;;;;;2.83;1.30;;;;;;;8.78;100.00;100027.19;5032927;28;20401;-70
2023/04/27 01:44:59;;;;;;;1.92;1.27;;;;;;;8.82;100.00;100023.94;5047098;28;20041;-72
2023/04/27 01:47:26;;;;;;;2.65;1.48;;;;;;;8.83;100.00;100030.81;5032809;28;20025;-70
2023/04/27 01:49:52;;;;;;;5.90;1.40;;;;;;;8.82;100.00;100034.22;5046588;28;20055;-71
2023/04/27 01:52:17;;;;;;;3.15;1.35;;;;;;;8.74;100.00;100035.63;5032656;28;20030;-74
2023/04/27 01:54:43;;;;;;;2.92;1.30;;;;;;;8.71;100.00;100044.13;5032503;28;20022;-70
2023/04/27 01:57:08;;;;;;;3.08;1.25;;;;;;;8.71;100.00;100038.06;5032606;28;20108;-71
2023/04/27 01:59:34;;;;;;;2.83;1.33;;;;;;;8.62;100.00;100037.75;5032696;28;20076;-68
2023/04/27 02:01:59;;;;;;;1.33;1.23;;;;;;;8.63;100.00;100042.94;5032058;28;20498;-68
2023/04/27 02:04:25;;;;;;;3.63;1.58;;;;;;;8.56;100.00;100036.69;5032439;28;20044;-71
2023/04/27 02:06:50;;;;;;;2.05;1.38;;;;;;;8.63;100.00;100050.66;5032409;28;20079;-71
2023/04/27 02:09:16;;;;;;;1.65;1.30;;;;;;;8.57;100.00;100045.28;5032228;28;20523;-71
2023/04/27 02:11:41;;;;;;;2.00;1.27;;;;;;;8.61;100.00;100051.41;5032330;28;20021;-70
2023/04/27 02:14:07;;;;;;;3.25;1.33;;;;;;;8.58;100.00;100050.50;5032192;28;20542;-70
2023/04/27 02:16:32;;;;;;;2.47;1.40;;;;;;;8.68;100.00;100058.56;5030940;28;20025;-70
2023/04/27 02:18:58;;;;;;;1.83;1.50;;;;;;;8.68;100.00;100055.97;5032098;28;20487;-69
2023/04/27 02:21:23;;;;;;;2.72;1.50;;;;;;;8.64;100.00;100061.84;5032040;28;20123;-70
2023/04/27 02:23:49;;;;;;;1.55;1.45;;;;;;;8.65;100.00;100061.00;5031819;28;20037;-73
2023/04/27 02:26:19;;;;;;;2.40;1.65;;;;;;;8.50;100.00;100053.56;5032082;28;20469;-70
2023/04/27 02:28:46;;;;;;;1.98;1.60;;;;;;;8.61;100.00;100070.31;5031986;28;20041;-69
2023/04/27 02:31:12;;;;;;;2.00;1.45;;;;;;;8.59;100.00;100071.94;5031902;28;20394;-68
2023/04/27 02:33:38;;;;;;;2.22;1.60;;;;;;;8.25;100.00;100025.19;5031736;28;20049;-69
2023/04/27 02:36:04;;;;;;;2.30;1.73;;;;;;;8.58;100.00;100086.53;5031839;28;20034;-68
2023/04/27 02:38:29;;;;;;;3.13;2.00;;;;;;;8.56;100.00;100088.16;5031159;28;20029;-73
2023/04/27 02:40:55;;;;;;;2.55;1.38;;;;;;;8.50;100.00;100082.75;5031238;28;20507;-71
2023/04/27 02:43:21;;;;;;;4.10;1.92;;;;;;;8.59;100.00;100092.53;5031602;28;20028;-70
2023/04/27 02:45:46;;;;;;;2.45;1.63;;;;;;;8.44;100.00;100079.91;5031943;28;20025;-72
2023/04/27 02:48:12;;;;;;;3.47;1.65;;;;;;;8.55;100.00;100090.66;5031666;28;20099;-70
2023/04/27 02:50:42;;;;;;;2.55;1.65;;;;;;;8.56;100.00;100098.44;5031614;28;20061;-69
2023/04/27 02:53:08;;;;;;;5.00;1.70;;;;;;;8.57;100.00;100102.78;5031376;28;20454;-71
2023/04/27 02:55:33;;;;;;;3.42;1.85;;;;;;;8.65;100.00;100115.94;5031540;28;20044;-70
2023/04/27 02:57:59;;;;;;;3.17;1.88;;;;;;;8.67;100.00;100118.56;5031439;28;20038;-70
2023/04/27 03:00:24;;;;;;;2.42;1.63;;;;;;;8.56;100.00;100116.44;5031119;28;20029;-70
2023/04/27 03:02:50;;;;;;;1.98;1.52;;;;;;;8.60;100.00;100112.31;5045514;28;20034;-68
2023/04/27 03:05:16;;;;;;;3.30;1.45;;;;;;;8.55;100.00;100113.84;5031365;28;20056;-70
2023/04/27 03:07:42;;;;;;;4.63;1.60;;;;;;;8.60;100.00;100120.03;5031134;28;20025;-69
2023/04/27 03:10:08;;;;;;;3.35;1.70;;;;;;;8.42;100.00;100074.72;5031256;28;20416;-70
2023/04/27 03:12:34;;;;;;;2.72;1.50;;;;;;;8.58;100.00;100124.22;5031325;28;20030;-73
2023/04/27 03:15:00;;;;;;;2.15;1.52;;;;;;;8.63;100.00;100133.00;5031066;28;20029;-70
2023/04/27 03:17:26;;;;;;;2.92;1.60;;;;;;;8.69;100.00;100138.38;5031001;28;20399;-70
2023/04/27 03:19:52;;;;;;;1.98;1.50;;;;;;;8.70;100.00;100129.00;5029869;28;20033;-69
2023/04/27 03:22:17;;;;;;;2.38;1.70;;;;;;;8.84;100.00;100144.97;5031015;28;20453;-69
2023/04/27 03:24:43;;;;;;;2.90;1.80;;;;;;;8.90;100.00;100127.19;5031044;28;20029;-70
2023/04/27 03:27:08;;;;;;;1.88;1.50;;;;;;;8.82;100.00;100147.47;5031022;28;20025;-71
2023/04/27 03:29:34;;;;;;;1.80;1.63;;;;;;;8.84;100.00;100150.97;5030873;28;20028;-71
2023/04/27 03:31:59;;;;;;;3.30;1.77;;;;;;;8.84;100.00;100152.69;5030387;28;20029;-68
2023/04/27 03:34:25;;;;;;;2.25;1.73;;;;;;;8.84;100.00;100153.56;5030949;28;20057;-67
2023/04/27 03:36:50;;;;;;;1.85;1.67;;;;;;;9.00;100.00;100161.88;5029540;28;20029;-68
2023/04/27 03:39:17;;;;;;;2.60;1.88;;;;;;;8.89;100.00;100125.41;5030599;28;20056;-71
2023/04/27 03:41:42;;;;;;;4.50;2.00;;;;;;;9.15;100.00;100167.59;5029271;28;20025;-71
2023/04/27 03:44:08;;;;;;;3.17;1.70;;;;;;;9.23;100.00;100170.47;5030866;28;20541;-70
2023/04/27 03:46:33;;;;;;;3.05;1.83;;;;;;;9.28;100.00;100181.81;5030865;28;20028;-70
2023/04/27 03:48:59;;;;;;;1.77;1.60;;;;;;;9.32;100.00;100183.69;5029381;28;20072;-70
2023/04/27 03:51:25;;;;;;;2.53;1.80;;;;;;;9.39;100.00;100185.69;5030446;28;20030;-70
2023/04/27 03:53:51;;;;;;;2.72;1.98;;;;;;;9.21;100.00;100136.94;5030673;28;20036;-70
2023/04/27 03:56:16;;;;;;;3.53;2.20;;;;;;;9.52;100.00;100187.00;5030633;28;20025;-70
2023/04/27 03:58:42;;;;;;;2.70;1.98;;;;;;;9.52;100.00;100183.53;5030587;28;20041;-70
2023/04/27 04:01:09;;;;;;;3.30;1.90;;;;;;;9.30;100.00;100156.13;5030665;28;20037;-70
2023/04/27 04:03:35;;;;;;;4.78;2.00;;;;;;;9.52;100.00;100205.03;5030358;28;20033;-69
2023/04/27 04:06:02;;;;;;;2.90;1.88;;;;;;;9.47;100.00;100201.44;5030431;28;20097;-70
2023/04/27 04:08:28;;;;;;;4.13;2.20;;;;;;;9.50;100.00;100201.53;5030373;28;20038;-71
2023/04/27 04:10:55;;;;;;;2.72;1.98;;;;;;;9.51;100.00;100205.88;5030220;28;20095;-70
2023/04/27 04:13:20;;;;;;;4.97;2.22;;;;;;;9.57;100.00;100210.38;5030855;28;20457;-70
2023/04/27 04:15:45;;;;;;;3.58;2.35;;;;;;;9.59;100.00;100216.44;5029783;28;20025;-70
2023/04/27 04:18:12;;;;;;;2.65;1.60;;;;;;;9.30;100.00;100187.91;5030451;28;20022;-69
2023/04/27 04:20:37;;;;;;;5.90;2.15;;;;;;;9.37;100.00;100219.91;5029126;28;20427;-67
2023/04/27 04:23:03;;;;;;;2.60;1.73;;;;;;;9.01;100.00;100168.75;5028973;28;20025;-70
2023/04/27 04:25:28;;;;;;;2.10;1.65;;;;;;;9.21;100.00;100221.94;5030559;28;20029;-71
2023/04/27 04:27:54;;;;;;;2.42;1.38;;;;;;;9.13;100.00;100227.59;5025254;28;20084;-72
2023/04/27 04:30:19;;;;;;;1.98;1.55;;;;;;;8.78;100.00;100176.47;5013065;28;20353;-69
2023/04/27 04:32:45;;;;;;;3.65;1.60;;;;;;;9.06;100.00;100236.78;5010128;28;20468;-72
2023/04/27 04:35:10;;;;;;;2.92;1.52;;;;;;;9.01;100.00;100231.44;5026891;28;20046;-70
2023/04/27 04:37:36;;;;;;;3.13;2.00;;;;;;;8.98;100.00;100243.31;5009059;28;20037;-71
2023/04/27 04:40:09;;;;;;;1.73;1.30;;;;;;;8.94;100.00;100229.44;5010504;28;20084;-69
2023/04/27 04:42:37;;;;;;;2.78;1.50;;;;;;;8.87;100.00;100236.06;5010499;28;20025;-72
2023/04/27 04:45:03;;;;;;;4.22;1.70;;;;;;;8.86;100.00;100225.69;5015358;28;20029;-71
2023/04/27 04:47:33;;;;;;;2.97;1.60;;;;;;;8.88;100.00;100234.34;5027591;28;20510;-71
2023/04/27 04:49:58;;;;;;;3.70;1.60;;;;;;;8.85;100.00;100242.84;5030141;28;20060;-70
2023/04/27 04:52:24;;;;;;;3.97;1.98;;;;;;;8.86;100.00;100246.28;5027445;28;20061;-72
2023/04/27 04:54:52;;;;;;;2.28;1.67;;;;;;;8.88;100.00;100250.69;5030063;28;20037;-74
2023/04/27 04:57:18;;;;;;;2.45;1.83;;;;;;;8.62;100.00;100198.13;5030212;28;20027;-72
2023/04/27 04:59:43;;;;;;;2.47;1.80;;;;;;;8.41;100.00;100172.38;5029591;28;20403;-74
2023/04/27 05:02:09;;;;;;;3.35;1.83;;;;;;;8.84;100.00;100253.94;5030735;28;20039;-69
2023/04/27 05:04:34;;;;;;;3.00;1.90;;;;;;;8.80;100.00;100254.66;5033167;28;20044;-68
2023/04/27 05:07:00;;;;;;;4.05;2.03;;;;;;;8.85;100.00;100254.84;5031631;28;20099;-72
2023/04/27 05:09:25;;;;;;;3.45;1.77;;;;;;;8.83;100.00;100247.03;5032723;28;20037;-74
2023/04/27 05:11:51;;;;;;;3.45;2.05;;;;;;;8.85;100.00;100249.69;5033317;28;20458;-72
2023/04/27 05:14:16;;;;;;;3.95;1.90;;;;;;;8.84;100.00;100256.53;5030394;28;20068;-74
2023/04/27 05:16:42;;;;;;;3.30;1.75;;;;;;;8.84;100.00;100264.25;5034206;28;20041;-73
2023/04/27 05:19:07;;;;;;;3.00;2.35;;;;;;;8.73;100.00;100240.66;5031933;28;20033;-72
2023/04/27 05:21:33;;;;;;;3.83;2.28;;;;;;;8.88;100.00;100263.56;5032623;28;20104;-71
2023/04/27 05:23:59;;;;;;;3.55;2.28;;;;;;;8.93;100.00;100265.44;5031892;28;20126;-72
2023/04/27 05:26:24;;;;;;;4.00;1.88;;;;;;;8.86;100.00;100266.88;5030934;28;20041;-70
2023/04/27 05:28:50;;;;;;;7.18;2.22;;;;;;;8.83;100.00;100274.47;5031915;28;20025;-69
2023/04/27 05:31:15;;;;;;;6.13;3.50;;;;;;;8.80;100.00;100266.63;5032585;28;20052;-71
2023/04/27 05:33:41;;;;;;;4.40;3.00;;;;;;;8.76;100.00;100251.88;5032025;28;20080;-69
2023/04/27 05:36:07;;;;;;;4.03;2.60;;;;;;;8.87;100.00;100274.69;5032299;28;20037;-71
2023/04/27 05:38:34;;;;;;;2.85;1.95;;;;;;;8.92;100.00;100261.09;5032499;28;20038;-70
2023/04/27 05:41:00;;;;;;;2.35;1.90;;;;;;;8.92;100.00;100259.41;5032402;28;20026;-70
2023/04/27 05:43:26;;;;;;;3.10;2.00;;;;;;;8.95;100.00;100261.22;5032358;28;20025;-73
2023/04/27 05:45:52;;;;;;;3.97;2.08;;;;;;;8.77;100.00;100233.91;5032315;28;20022;-70
2023/04/27 05:48:18;;;;;;;3.42;2.15;;;;;;;8.60;100.00;100207.50;5032135;28;20028;-72
2023/04/27 05:50:43;;;;;;;4.72;2.40;;;;;;;9.11;100.00;100286.78;5032486;28;20471;-71
2023/04/27 05:53:09;;;;;;;2.00;1.73;;;;;;;9.09;100.00;100279.81;5032245;28;20029;-72
2023/04/27 05:55:34;;;;;;;3.55;2.30;;;;;;;9.23;100.00;100292.41;5031169;28;20553;-71
2023/04/27 05:58:00;;;;;;;3.55;2.13;;;;;;;9.26;100.00;100298.50;5031467;28;20655;-72
2023/04/27 06:00:26;;;;;;;5.45;2.38;;;;;;;9.06;100.00;100253.13;5023404;28;20101;-73
2023/04/27 06:02:52;;;;;;;3.03;2.13;;;;;;;9.32;100.00;100291.00;5020695;28;20487;-73
2023/04/27 06:05:18;;;;;;;4.28;1.90;;;;;;;9.33;100.00;100279.88;5026620;28;20047;-73
2023/04/27 06:07:43;;;;;;;3.05;2.17;;;;;;;9.44;100.00;100299.22;5026033;28;20438;-70
2023/04/27 06:10:10;;;;;;;5.97;2.08;;;;;;;9.46;100.00;100284.69;5028251;28;20074;-72
2023/04/27 06:12:36;;;;;;;3.08;2.13;;;;;;;9.41;100.00;100293.06;5020708;28;20053;-72
2023/04/27 06:15:07;;;;;;;4.03;2.22;;;;;;;9.43;100.00;100287.13;5021178;28;20140;-71
2023/04/27 06:17:37;;;;;;;2.92;2.30;;;;;;;9.42;100.00;100299.97;5026728;28;20455;-72
2023/04/27 06:20:06;;;;;;;3.95;2.55;;;;;;;9.41;100.00;100303.38;5031967;28;20029;-72
2023/04/27 06:22:32;;;;;;;2.97;2.28;;;;;;;9.41;100.00;100293.06;5031790;28;20033;-69
2023/04/27 06:24:57;;;;;;;4.55;2.40;;;;;;;9.36;100.00;100285.19;5031877;28;20498;-71
2023/04/27 06:27:23;;;;;;;6.38;4.65;;;;;;;9.53;100.00;100302.16;5031361;28;20028;-69
2023/04/27 06:29:48;;;;;;;10.32;7.10;;;;;;;9.55;100.00;100294.47;5031711;28;20033;-74
2023/04/27 06:32:14;;;;;;;6.22;3.92;;;;;;;9.57;100.00;100292.84;5031821;28;20034;-71
2023/04/27 06:34:40;;;;;;;7.93;6.50;;;;;;;9.59;100.00;100304.06;5031180;28;20492;-70
2023/04/27 06:37:06;;;;;;;4.35;2.83;;;;;;;9.61;100.00;100302.44;5031833;28;20033;-71
2023/04/27 06:39:31;;;;;;;8.88;5.72;;;;;;;9.63;100.00;100302.50;5031346;28;20108;-71
2023/04/27 06:41:57;;;;;;;4.38;3.17;;;;;;;9.69;100.00;100297.56;5030262;28;20046;-68
2023/04/27 06:44:22;;;;;;;5.25;2.95;;;;;;;9.51;100.00;100290.03;5030966;28;20389;-72
2023/04/27 06:46:48;;;;;;;2.72;2.13;;;;;;;9.63;100.00;100313.72;5031573;28;20468;-74
2023/04/27 06:49:13;;;;;;;3.22;2.40;;;;;;;9.67;100.00;100302.69;5031622;28;20109;-71
2023/04/27 06:51:39;;;;;;;5.43;2.78;;;;;;;9.59;100.00;100270.56;5031650;28;20056;-72
2023/04/27 06:54:04;;;;;;;4.50;3.42;;;;;;;9.95;100.00;100316.59;5031028;28;20037;-71
2023/04/27 06:56:30;;;;;;;5.35;2.50;;;;;;;9.97;100.00;100306.31;5031270;28;20395;-70
2023/04/27 06:58:56;;;;;;;3.67;2.05;;;;;;;10.08;100.00;100323.09;5031225;28;20029;-72
2023/04/27 07:01:21;;;;;;;3.25;2.00;;;;;;;10.15;100.00;100319.91;5031229;28;20040;-74
2023/04/27 07:03:46;;;;;;;2.38;1.85;;;;;;;10.22;100.00;100328.75;5030990;28;20124;-71
2023/04/27 07:06:12;;;;;;;3.13;2.10;;;;;;;10.38;100.00;100326.75;5030878;28;20415;-76
2023/04/27 07:08:37;;;;;;;2.70;1.63;;;;;;;10.37;100.00;100331.03;5030809;28;20112;-70
2023/04/27 07:11:03;;;;;;;3.17;1.60;;;;;;;10.42;100.00;100332.06;5031247;28;20037;-73
2023/04/27 07:13:29;;;;;;;5.35;1.80;;;;;;;10.39;100.00;100331.94;5031015;28;20099;-75
2023/04/27 07:15:58;;;;;;;2.88;1.60;;;;;;;10.37;100.00;100333.63;5031222;28;20033;-73
2023/04/27 07:18:23;;;;;;;2.42;1.77;;;;;;;10.40;100.00;100333.72;5030932;28;20040;-72
2023/04/27 07:20:49;;;;;;;3.03;1.70;;;;;;;10.47;100.00;100332.25;5030928;28;20063;-74
2023/04/27 07:23:15;;;;;;;4.20;1.90;;;;;;;10.44;100.00;100335.59;5030911;28;20109;-74
2023/04/27 07:25:40;;;;;;;4.15;2.05;;;;;;;10.39;100.00;100337.09;5030467;28;20048;-73
2023/04/27 07:28:06;;;;;;;3.55;2.13;;;;;;;10.48;100.00;100337.44;5030941;28;20463;-73
2023/04/27 07:30:35;;;;;;;2.88;1.60;;;;;;;10.50;100.00;100343.56;5030613;28;20099;-71
2023/04/27 07:33:00;;;;;;;2.60;1.80;;;;;;;10.43;100.00;100340.69;5030335;28;20058;-72
2023/04/27 07:35:26;;;;;;;4.75;2.70;;;;;;;10.49;100.00;100351.22;5030344;28;20039;-71
2023/04/27 07:37:51;;;;;;;4.00;2.70;;;;;;;10.47;100.00;100346.00;5030849;28;20022;-73
2023/04/27 07:40:17;;;;;;;3.22;2.00;;;;;;;10.57;100.00;100351.53;5030463;28;20658;-70
2023/04/27 07:42:43;;;;;;;3.72;2.10;;;;;;;10.55;100.00;100346.28;5030582;28;20065;-71
2023/04/27 07:45:09;;;;;;;4.05;2.30;;;;;;;10.62;100.00;100344.81;5030544;28;20032;-70
2023/04/27 07:47:35;;;;;;;3.80;1.98;;;;;;;10.72;100.00;100351.16;5030299;28;20026;-74
2023/04/27 07:50:00;;;;;;;3.50;2.00;;;;;;;10.83;100.00;100337.78;5030570;28;20115;-71
2023/04/27 07:52:26;;;;;;;4.55;1.98;;;;;;;10.89;100.00;100349.13;5030419;28;20053;-72
2023/04/27 07:54:51;;;;;;;2.78;1.73;;;;;;;10.96;100.00;100351.09;5029966;28;20025;-71
2023/04/27 07:57:17;;;;;;;3.10;1.95;;;;;;;10.99;100.00;100330.53;5030607;28;20025;-71
2023/04/27 07:59:42;;;;;;;3.50;1.80;;;;;;;11.23;100.00;100343.38;5030544;28;20399;-76
2023/04/27 08:02:08;;;;;;;4.40;2.60;;;;;;;11.28;100.00;100352.16;5030453;28;20018;-73
2023/04/27 08:04:33;;;;;;;5.68;2.50;;;;;;;11.36;100.00;100357.56;5029051;28;20041;-73
2023/04/27 08:06:59;;;;;;;4.20;2.40;;;;;;;11.43;100.00;100353.50;5030442;28;20052;-72
2023/04/27 08:09:25;;;;;;;3.78;2.13;;;;;;;11.40;100.00;100343.94;5030176;28;20067;-70
2023/04/27 08:11:51;;;;;;;6.53;2.25;;;;;;;11.62;100.00;100367.84;5028758;28;20033;-73
2023/04/27 08:14:16;;;;;;;3.92;2.33;;;;;;;11.64;100.00;100355.88;5030090;28;20040;-75
2023/04/27 08:16:42;;;;;;;3.38;2.00;;;;;;;11.65;100.00;100349.84;5030232;28;20025;-74
2023/04/27 08:19:08;;;;;;;4.95;2.40;;;;;;;11.30;100.00;100305.69;5030514;28;20032;-72
2023/04/27 08:21:35;;;;;;;3.45;2.22;;;;;;;11.56;100.00;100360.78;5024867;28;20067;-72
2023/04/27 08:24:02;;;;;;;4.22;2.40;;;;;;;11.55;100.00;100350.41;5029354;28;20025;-72
2023/04/27 08:26:27;;;;;;;3.40;2.10;;;;;;;11.50;100.00;100329.56;5029631;28;20030;-74
2023/04/27 08:28:52;;;;;;;4.60;2.30;;;;;;;11.70;100.00;100357.75;5029333;28;20025;-73
2023/04/27 08:31:18;;;;;;;4.55;2.30;;;;;;;11.72;100.00;100354.38;5029989;28;20029;-73
2023/04/27 08:33:43;;;;;;;5.32;2.97;;;;;;;11.72;100.00;100354.38;5029930;28;20204;-72
2023/04/27 08:36:09;;;;;;;4.82;2.25;;;;;;;11.60;100.00;100310.94;5029393;28;20030;-71
2023/04/27 08:38:34;;;;;;;4.15;2.58;;;;;;;11.97;100.00;100352.56;5032567;28;20026;-72
2023/04/27 08:41:00;;;;;;;4.55;2.72;;;;;;;12.07;100.00;100349.41;5034041;28;20482;-72
2023/04/27 08:43:25;;;;;;;4.63;2.35;;;;;;;12.18;100.00;100356.59;5016331;28;20055;-69
2023/04/27 08:45:52;;;;;;;4.93;2.40;;;;;;;12.30;100.00;100352.66;5017985;28;20052;-71
2023/04/27 08:48:19;;;;;;;4.85;2.33;;;;;;;12.46;100.00;100348.78;5030917;28;20163;-72
2023/04/27 08:50:48;;;;;;;5.25;3.65;;;;;;;12.46;100.00;100347.88;5033677;28;20029;-70
2023/04/27 08:53:21;;;;;;;4.78;2.60;;;;;;;12.51;100.00;100343.72;5034089;28;20426;-70
2023/04/27 08:55:47;;;;;;;5.93;2.60;;;;;;;12.52;100.00;100342.00;5032216;28;20048;-72
2023/04/27 08:58:12;;;;;;;4.88;2.95;;;;;;;12.53;100.00;100325.63;5033583;28;20029;-69
2023/04/27 09:00:40;;;;;;;6.13;2.00;;;;;;;12.74;100.00;100344.31;5033713;28;20105;-69
2023/04/27 09:03:07;;;;;;;3.75;2.10;;;;;;;12.79;100.00;100334.94;5033399;28;20028;-74
2023/04/27 09:05:32;;;;;;;3.58;1.85;;;;;;;12.95;100.00;100337.94;5033265;28;20056;-70
2023/04/27 09:08:04;;;;;;;6.15;2.75;;;;;;;13.07;100.00;100324.41;5033486;28;20025;-69
2023/04/27 09:10:42;;;;;;;4.60;2.55;;;;;;;13.17;100.00;100326.41;5033601;28;20146;-72
2023/04/27 09:13:07;;;;;;;4.80;2.90;;;;;;;13.13;100.00;100332.31;5033012;28;20021;-72
2023/04/27 09:15:48;;;;;;;5.13;4.00;;;;;;;13.03;100.00;100351.09;5033515;28;20029;-71
2023/04/27 09:18:22;;;;;;;5.35;4.03;;;;;;;13.05;100.00;100333.88;5033452;28;20108;-71
2023/04/27 09:20:49;;;;;;;6.15;4.22;;;;;;;13.06;100.00;100336.50;5033263;28;20044;-70
2023/04/27 09:23:32;;;;;;;5.47;4.22;;;;;;;12.98;99.98;100337.16;5032794;28;20104;-72
2023/04/27 09:25:59;;;;;;;7.72;4.60;;;;;;;12.94;100.00;100337.06;5033975;28;20040;-71
2023/04/27 09:28:29;;;;;;;6.82;4.45;;;;;;;12.95;100.00;100314.63;5033460;28;20037;-73
2023/04/27 09:30:57;;;;;;;10.25;5.53;;;;;;;12.98;100.00;100332.81;5031743;28;20057;-73
2023/04/27 09:33:24;;;;;;;7.43;4.70;;;;;;;13.06;100.00;100327.81;5032361;28;20049;-72
2023/04/27 09:35:49;;;;;;;7.20;4.57;;;;;;;13.11;100.00;100329.69;5013298;28;20499;-71
2023/04/27 09:38:19;;;;;;;9.07;4.93;;;;;;;12.84;100.00;100293.63;5032092;28;20037;-73
2023/04/27 09:40:45;;;;;;;;;;;;;;;13.08;100.00;100320.97;5032882;28;20052;-73
2023/04/27 09:43:11;;;;;;;8.27;4.30;;;;;;;13.01;100.00;100304.41;5031760;28;20275;-73
2023/04/27 09:45:37;;;;;;;8.07;4.72;;;;;;;13.12;100.00;100307.25;5031093;28;20124;-70
2023/04/27 09:48:04;;;;;;;7.30;5.10;;;;;;;13.27;100.00;100324.88;5021036;28;20116;-73
2023/04/27 09:50:33;;;;;;;8.32;5.00;;;;;;;13.18;97.46;100327.25;5027980;28;20034;-73
2023/04/27 09:52:59;;;;;;;7.78;4.95;;;;;;;13.06;98.23;100314.88;5024905;28;20025;-72
2023/04/27 09:55:30;;;;;;;6.22;4.13;;;;;;;13.13;100.00;100321.94;5017146;28;20459;-71
2023/04/27 09:58:11;;;;;;;8.35;5.03;;;;;;;12.77;98.52;100248.56;5012711;28;20026;-75
2023/04/27 10:00:36;;;;;;;8.27;5.45;;;;;;;13.25;99.17;100331.75;5012829;28;20439;-72
2023/04/27 10:03:28;;;;;;;9.10;5.07;;;;;;;13.38;100.00;100323.47;5015505;28;20113;-74
2023/04/27 10:06:27;;;;;;;9.05;6.85;;;;;;;13.29;97.44;100328.38;5007791;28;20086;-73
2023/04/27 10:08:54;;;;;;;;;;;;;;;13.34;98.59;100326.78;5007367;28;20037;-73
2023/04/27 10:11:21;;;;;;;7.22;5.40;;;;;;;13.42;99.20;100322.69;5008896;28;19963;-70
2023/04/27 10:13:54;;;;;;;7.28;5.78;;;;;;;13.17;100.00;100273.66;5009954;28;20040;-73
2023/04/27 10:16:20;;;;;;;11.10;5.80;;;;;;;13.42;99.62;100327.88;5009774;28;20042;-74
2023/04/27 10:18:55;;;;;;;7.60;4.78;;;;;;;13.61;98.77;100314.44;5010042;28;20118;-71
2023/04/27 10:21:22;;;;;;;9.75;5.25;;;;;;;13.78;99.03;100327.78;5009884;28;20113;-71
2023/04/27 10:23:51;;;;;;;6.70;5.60;;;;;;;13.70;100.00;100309.47;5009758;28;20045;-71
2023/04/27 10:26:24;;;;;;;8.55;5.30;;;;;;;13.75;96.28;100323.41;5009985;28;20105;-73
2023/04/27 10:28:57;;;;;;;7.38;4.85;;;;;;;13.45;97.60;100276.94;5009496;28;20043;-76
2023/04/27 10:31:27;;;;;;;7.75;5.80;;;;;;;13.64;96.93;100323.16;5009820;28;20041;-70
2023/04/27 10:34:03;;;;;;;10.23;6.20;;;;;;;13.50;95.72;100333.22;5009300;28;20201;-71
2023/04/27 10:36:37;;;;;;;12.27;6.20;;;;;;;13.53;98.47;100327.22;5009612;28;20439;-74
2023/04/27 10:39:14;;;;;;;9.73;6.45;;;;;;;13.36;98.15;100296.59;5009572;28;20519;-71
2023/04/27 10:41:49;;;;;;;7.60;6.07;;;;;;;13.81;98.32;100341.69;5008641;28;20033;-73
2023/04/27 10:44:31;;;;;;;7.47;5.47;;;;;;;13.85;96.56;100346.09;5011913;28;20037;-72
2023/04/27 10:47:00;;;;;;;9.07;6.47;;;;;;;13.61;96.53;100307.53;5012178;28;20108;-70
2023/04/27 10:49:29;;;;;;;12.02;6.22;;;;;;;13.93;100.00;100335.88;5012218;28;20026;-71
2023/04/27 10:51:58;;;;;;;;;;;;;;;14.33;95.99;100334.09;5012033;28;20037;-71
2023/04/27 10:54:28;;;;;;;9.73;5.68;;;;;;;14.48;96.07;100297.16;5011618;28;20000;-73
2023/04/27 10:56:54;;;;;;;8.35;5.47;;;;;;;15.08;92.39;100335.44;5011958;28;20037;-73
2023/04/27 10:59:20;;;;;;;7.53;5.63;;;;;;;15.23;93.37;100333.09;5011550;28;20068;-71
2023/04/27 11:01:50;;;;;;;7.82;5.78;;;;;;;15.15;91.40;100326.88;5014655;28;20049;-74
2023/04/27 11:04:17;;;;;;;9.95;6.32;;;;;;;15.05;94.16;100328.47;5019992;28;20112;-73
2023/04/27 11:06:44;;;;;;;9.60;5.43;;;;;;;15.16;91.62;100326.03;5030924;28;20034;-72
2023/04/27 11:09:10;;;;;;;9.32;5.22;;;;;;;15.07;90.68;100341.50;5031647;28;20028;-73
2023/04/27 11:11:36;;;;;;;8.35;5.22;;;;;;;14.67;90.74;100306.19;5031036;28;20461;-71
2023/04/27 11:14:02;;;;;;;8.88;5.05;;;;;;;14.97;94.14;100349.13;5031299;28;20021;-71
2023/04/27 11:16:28;;;;;;;9.70;5.55;;;;;;;15.16;95.02;100346.84;5031415;28;20076;-75
2023/04/27 11:18:54;;;;;;;9.10;5.47;;;;;;;15.33;92.49;100341.91;5030964;28;20021;-71
2023/04/27 11:21:20;;;;;;;7.90;5.25;;;;;;;15.29;91.93;100303.69;5031196;28;20029;-70